sensor_id;sensor_type;location;lat;lon;timestamp;temperature;humidity
16871;DHT22;8552;48.120;-1.456;2023-04-01T00:00:20;9.90;99.90
16871;DHT22;8552;48.120;-1.456;2023-04-01T00:02:46;9.90;99.90
16871;DHT22;8552;48.120;-1.456;2023-04-01T00:05:12;9.80;99.90
16871;DHT22;8552;48.120;-1.456;2023-04-01T00:07:38;9.80;99.90
16871;DHT22;8552;48.120;-1.456;2023-04-01T00:10:05;9.70;99.90
16871;DHT22;8552;48.120;-1.456;2023-04-01T00:12:31;9.70;99.90
16871;DHT22;8552;48.120;-1.456;2023-04-01T00:14:57;9.60;99.90
16871;DHT22;8552;48.120;-1.456;2023-04-01T00:17:23;9.60;99.90
16871;DHT22;8552;48.120;-1.456;2023-04-01T00:19:48;9.60;99.90
16871;DHT22;8552;48.120;-1.456;2023-04-01T00:22:14;9.60;99.90
16871;DHT22;8552;48.120;-1.456;2023-04-01T00:24:41;9.60;99.90
16871;DHT22;8552;48.120;-1.456;2023-04-01T00:27:07;9.60;99.90
16871;DHT22;8552;48.120;-1.456;2023-04-01T00:29:34;9.50;99.90
16871;DHT22;8552;48.120;-1.456;2023-04-01T00:32:00;9.50;99.90
16871;DHT22;8552;48.120;-1.456;2023-04-01T00:34:26;9.50;99.90
16871;DHT22;8552;48.120;-1.456;2023-04-01T00:36:52;9.40;99.90
16871;DHT22;8552;48.120;-1.456;2023-04-01T00:39:20;9.50;99.90
16871;DHT22;8552;48.120;-1.456;2023-04-01T00:41:46;9.50;99.90
16871;DHT22;8552;48.120;-1.456;2023-04-01T00:44:21;9.50;99.90
16871;DHT22;8552;48.120;-1.456;2023-04-01T00:46:48;9.40;99.90
16871;DHT22;8552;48.120;-1.456;2023-04-01T00:49:16;9.40;99.90
16871;DHT22;8552;48.120;-1.456;2023-04-01T00:51:45;9.40;99.90
16871;DHT22;8552;48.120;-1.456;2023-04-01T00:54:14;9.40;99.90
16871;DHT22;8552;48.120;-1.456;2023-04-01T00:56:45;9.30;99.90
16871;DHT22;8552;48.120;-1.456;2023-04-01T00:59:18;9.30;99.90
16871;DHT22;8552;48.120;-1.456;2023-04-01T01:01:45;9.30;99.90
16871;DHT22;8552;48.120;-1.456;2023-04-01T01:04:28;9.30;99.90
16871;DHT22;8552;48.120;-1.456;2023-04-01T01:07:03;9.40;99.90
16871;DHT22;8552;48.120;-1.456;2023-04-01T01:09:41;9.40;99.90
16871;DHT22;8552;48.120;-1.456;2023-04-01T01:12:18;9.40;99.90
16871;DHT22;8552;48.120;-1.456;2023-04-01T01:36:17;9.20;99.90
16871;DHT22;8552;48.120;-1.456;2023-04-01T01:38:45;9.20;99.90
16871;DHT22;8552;48.120;-1.456;2023-04-01T01:41:14;9.20;99.90
16871;DHT22;8552;48.120;-1.456;2023-04-01T01:43:43;9.20;99.90
16871;DHT22;8552;48.120;-1.456;2023-04-01T01:46:13;9.20;99.90
16871;DHT22;8552;48.120;-1.456;2023-04-01T01:48:41;9.20;99.90
16871;DHT22;8552;48.120;-1.456;2023-04-01T01:51:08;9.20;99.90
16871;DHT22;8552;48.120;-1.456;2023-04-01T01:53:34;9.20;99.90
16871;DHT22;8552;48.120;-1.456;2023-04-01T01:56:00;9.30;99.90
16871;DHT22;8552;48.120;-1.456;2023-04-01T01:58:45;9.30;99.90
16871;DHT22;8552;48.120;-1.456;2023-04-01T02:01:34;9.30;99.90
16871;DHT22;8552;48.120;-1.456;2023-04-01T02:04:01;9.30;99.90
16871;DHT22;8552;48.120;-1.456;2023-04-01T02:06:30;9.30;99.90
16871;DHT22;8552;48.120;-1.456;2023-04-01T02:09:08;9.30;99.90
16871;DHT22;8552;48.120;-1.456;2023-04-01T02:14:05;9.30;99.90
16871;DHT22;8552;48.120;-1.456;2023-04-01T02:16:38;9.30;99.90
16871;DHT22;8552;48.120;-1.456;2023-04-01T02:19:06;9.20;99.90
16871;DHT22;8552;48.120;-1.456;2023-04-01T02:21:33;9.30;99.90
16871;DHT22;8552;48.120;-1.456;2023-04-01T02:24:03;9.30;99.90
16871;DHT22;8552;48.120;-1.456;2023-04-01T02:26:30;9.30;99.90
16871;DHT22;8552;48.120;-1.456;2023-04-01T02:28:57;9.30;99.90
16871;DHT22;8552;48.120;-1.456;2023-04-01T02:31:25;9.20;99.90
16871;DHT22;8552;48.120;-1.456;2023-04-01T02:33:51;9.20;99.90
16871;DHT22;8552;48.120;-1.456;2023-04-01T02:36:17;9.10;99.90
16871;DHT22;8552;48.120;-1.456;2023-04-01T02:38:44;9.20;99.90
16871;DHT22;8552;48.120;-1.456;2023-04-01T02:41:11;9.10;99.90
16871;DHT22;8552;48.120;-1.456;2023-04-01T02:43:37;9.10;99.90
16871;DHT22;8552;48.120;-1.456;2023-04-01T02:46:03;9.20;99.90
16871;DHT22;8552;48.120;-1.456;2023-04-01T02:48:29;9.20;99.90
16871;DHT22;8552;48.120;-1.456;2023-04-01T02:50:55;9.20;99.90
16871;DHT22;8552;48.120;-1.456;2023-04-01T02:53:21;9.20;99.90
16871;DHT22;8552;48.120;-1.456;2023-04-01T02:55:47;9.10;99.90
16871;DHT22;8552;48.120;-1.456;2023-04-01T02:58:16;9.10;99.90
16871;DHT22;8552;48.120;-1.456;2023-04-01T03:00:42;9.10;99.90
16871;DHT22;8552;48.120;-1.456;2023-04-01T03:03:09;9.10;99.90
16871;DHT22;8552;48.120;-1.456;2023-04-01T03:05:34;9.10;99.90
16871;DHT22;8552;48.120;-1.456;2023-04-01T03:08:01;9.00;99.90
16871;DHT22;8552;48.120;-1.456;2023-04-01T03:10:26;9.10;99.90
16871;DHT22;8552;48.120;-1.456;2023-04-01T03:12:52;9.00;99.90
16871;DHT22;8552;48.120;-1.456;2023-04-01T03:15:18;9.00;99.90
16871;DHT22;8552;48.120;-1.456;2023-04-01T03:17:44;9.10;99.90
16871;DHT22;8552;48.120;-1.456;2023-04-01T03:20:10;9.10;99.90
16871;DHT22;8552;48.120;-1.456;2023-04-01T03:22:36;9.10;99.90
16871;DHT22;8552;48.120;-1.456;2023-04-01T03:25:03;9.10;99.90
16871;DHT22;8552;48.120;-1.456;2023-04-01T03:27:29;9.10;99.90
16871;DHT22;8552;48.120;-1.456;2023-04-01T03:29:55;9.10;99.90
16871;DHT22;8552;48.120;-1.456;2023-04-01T03:32:21;9.10;99.90
16871;DHT22;8552;48.120;-1.456;2023-04-01T03:34:46;9.10;99.90
16871;DHT22;8552;48.120;-1.456;2023-04-01T03:37:12;9.00;99.90
16871;DHT22;8552;48.120;-1.456;2023-04-01T03:39:38;8.90;99.90
16871;DHT22;8552;48.120;-1.456;2023-04-01T03:42:04;8.90;99.90
16871;DHT22;8552;48.120;-1.456;2023-04-01T03:44:33;8.90;99.90
16871;DHT22;8552;48.120;-1.456;2023-04-01T03:46:59;8.80;99.90
16871;DHT22;8552;48.120;-1.456;2023-04-01T03:49:25;8.80;99.90
16871;DHT22;8552;48.120;-1.456;2023-04-01T03:51:51;8.80;99.90
16871;DHT22;8552;48.120;-1.456;2023-04-01T03:54:17;8.90;99.90
16871;DHT22;8552;48.120;-1.456;2023-04-01T03:56:45;8.90;99.90
16871;DHT22;8552;48.120;-1.456;2023-04-01T03:59:11;8.90;99.90
16871;DHT22;8552;48.120;-1.456;2023-04-01T04:01:37;8.90;99.90
16871;DHT22;8552;48.120;-1.456;2023-04-01T04:04:03;8.90;99.90
16871;DHT22;8552;48.120;-1.456;2023-04-01T04:06:28;8.90;99.90
16871;DHT22;8552;48.120;-1.456;2023-04-01T04:08:54;9.00;99.90
16871;DHT22;8552;48.120;-1.456;2023-04-01T04:11:21;8.90;99.90
16871;DHT22;8552;48.120;-1.456;2023-04-01T04:13:47;9.00;99.90
16871;DHT22;8552;48.120;-1.456;2023-04-01T04:16:16;9.00;99.90
16871;DHT22;8552;48.120;-1.456;2023-04-01T04:18:42;9.00;99.90
16871;DHT22;8552;48.120;-1.456;2023-04-01T04:21:14;9.00;99.90
16871;DHT22;8552;48.120;-1.456;2023-04-01T04:23:41;9.00;99.90
16871;DHT22;8552;48.120;-1.456;2023-04-01T04:26:09;9.10;99.90
16871;DHT22;8552;48.120;-1.456;2023-04-01T04:28:35;9.10;99.90
16871;DHT22;8552;48.120;-1.456;2023-04-01T04:31:01;9.10;99.90
16871;DHT22;8552;48.120;-1.456;2023-04-01T04:33:27;9.10;99.90
16871;DHT22;8552;48.120;-1.456;2023-04-01T04:35:55;9.10;99.90
16871;DHT22;8552;48.120;-1.456;2023-04-01T04:38:21;9.10;99.90
16871;DHT22;8552;48.120;-1.456;2023-04-01T04:40:47;9.10;99.90
16871;DHT22;8552;48.120;-1.456;2023-04-01T04:43:15;9.10;99.90
16871;DHT22;8552;48.120;-1.456;2023-04-01T04:45:41;9.10;99.90
16871;DHT22;8552;48.120;-1.456;2023-04-01T04:48:11;9.10;99.90
16871;DHT22;8552;48.120;-1.456;2023-04-01T04:50:49;9.10;99.90
16871;DHT22;8552;48.120;-1.456;2023-04-01T04:53:17;9.10;99.90
16871;DHT22;8552;48.120;-1.456;2023-04-01T04:55:48;9.10;99.90
16871;DHT22;8552;48.120;-1.456;2023-04-01T04:58:14;9.00;99.90
16871;DHT22;8552;48.120;-1.456;2023-04-01T05:00:40;9.10;99.90
16871;DHT22;8552;48.120;-1.456;2023-04-01T05:03:06;9.00;99.90
16871;DHT22;8552;48.120;-1.456;2023-04-01T05:05:32;9.00;99.90
16871;DHT22;8552;48.120;-1.456;2023-04-01T05:07:58;9.00;99.90
16871;DHT22;8552;48.120;-1.456;2023-04-01T05:10:24;9.00;99.90
16871;DHT22;8552;48.120;-1.456;2023-04-01T05:12:49;9.00;99.90
16871;DHT22;8552;48.120;-1.456;2023-04-01T05:15:15;9.00;99.90
16871;DHT22;8552;48.120;-1.456;2023-04-01T05:17:41;9.00;99.90
16871;DHT22;8552;48.120;-1.456;2023-04-01T05:20:07;8.90;99.90
16871;DHT22;8552;48.120;-1.456;2023-04-01T05:22:33;8.90;99.90
16871;DHT22;8552;48.120;-1.456;2023-04-01T05:24:58;8.80;99.90
16871;DHT22;8552;48.120;-1.456;2023-04-01T05:27:24;8.80;99.90
16871;DHT22;8552;48.120;-1.456;2023-04-01T05:29:50;8.80;99.90
16871;DHT22;8552;48.120;-1.456;2023-04-01T05:32:16;8.80;99.90
16871;DHT22;8552;48.120;-1.456;2023-04-01T05:34:42;8.80;99.90
16871;DHT22;8552;48.120;-1.456;2023-04-01T05:37:08;8.70;99.90
16871;DHT22;8552;48.120;-1.456;2023-04-01T05:39:37;8.80;99.90
16871;DHT22;8552;48.120;-1.456;2023-04-01T05:42:05;8.80;99.90
16871;DHT22;8552;48.120;-1.456;2023-04-01T05:44:31;8.70;99.90
16871;DHT22;8552;48.120;-1.456;2023-04-01T05:46:57;8.70;99.90
16871;DHT22;8552;48.120;-1.456;2023-04-01T05:49:22;8.60;99.90
16871;DHT22;8552;48.120;-1.456;2023-04-01T05:51:48;8.60;99.90
16871;DHT22;8552;48.120;-1.456;2023-04-01T05:54:14;8.50;99.90
16871;DHT22;8552;48.120;-1.456;2023-04-01T05:56:39;8.50;99.90
16871;DHT22;8552;48.120;-1.456;2023-04-01T05:59:05;8.50;99.90
16871;DHT22;8552;48.120;-1.456;2023-04-01T06:01:31;8.40;99.90
16871;DHT22;8552;48.120;-1.456;2023-04-01T06:03:57;8.40;99.90
16871;DHT22;8552;48.120;-1.456;2023-04-01T06:06:30;8.40;99.90
16871;DHT22;8552;48.120;-1.456;2023-04-01T06:09:06;8.30;99.90
16871;DHT22;8552;48.120;-1.456;2023-04-01T06:15:07;8.20;99.90
16871;DHT22;8552;48.120;-1.456;2023-04-01T06:33:58;8.50;99.90
16871;DHT22;8552;48.120;-1.456;2023-04-01T06:39:48;8.60;99.90
16871;DHT22;8552;48.120;-1.456;2023-04-01T06:42:37;8.50;99.90
16871;DHT22;8552;48.120;-1.456;2023-04-01T06:48:05;8.60;99.90
16871;DHT22;8552;48.120;-1.456;2023-04-01T06:50:38;8.70;99.90
16871;DHT22;8552;48.120;-1.456;2023-04-01T06:53:17;8.80;99.90
16871;DHT22;8552;48.120;-1.456;2023-04-01T06:56:14;8.80;99.90
16871;DHT22;8552;48.120;-1.456;2023-04-01T06:58:48;8.90;99.90
16871;DHT22;8552;48.120;-1.456;2023-04-01T07:01:24;8.90;99.90
16871;DHT22;8552;48.120;-1.456;2023-04-01T07:03:57;9.00;99.90
16871;DHT22;8552;48.120;-1.456;2023-04-01T07:06:50;9.00;99.90
16871;DHT22;8552;48.120;-1.456;2023-04-01T07:09:43;9.10;99.90
16871;DHT22;8552;48.120;-1.456;2023-04-01T07:12:15;9.10;99.90
16871;DHT22;8552;48.120;-1.456;2023-04-01T07:14:45;9.10;99.90
16871;DHT22;8552;48.120;-1.456;2023-04-01T07:17:31;9.10;99.90
16871;DHT22;8552;48.120;-1.456;2023-04-01T07:20:18;9.10;99.90
16871;DHT22;8552;48.120;-1.456;2023-04-01T07:22:49;9.10;99.90
16871;DHT22;8552;48.120;-1.456;2023-04-01T07:25:17;9.20;99.90
16871;DHT22;8552;48.120;-1.456;2023-04-01T07:27:45;9.30;99.90
16871;DHT22;8552;48.120;-1.456;2023-04-01T07:30:20;9.30;99.90
16871;DHT22;8552;48.120;-1.456;2023-04-01T07:35:33;9.60;99.90
16871;DHT22;8552;48.120;-1.456;2023-04-01T07:52:37;10.00;99.90
16871;DHT22;8552;48.120;-1.456;2023-04-01T07:55:18;10.10;99.90
16871;DHT22;8552;48.120;-1.456;2023-04-01T08:00:22;10.40;99.90
16871;DHT22;8552;48.120;-1.456;2023-04-01T08:05:55;10.50;99.90
16871;DHT22;8552;48.120;-1.456;2023-04-01T08:11:29;10.50;99.90
16871;DHT22;8552;48.120;-1.456;2023-04-01T08:16:56;10.70;99.90
16871;DHT22;8552;48.120;-1.456;2023-04-01T08:20:25;10.80;99.90
16871;DHT22;8552;48.120;-1.456;2023-04-01T08:22:39;10.80;99.90
16871;DHT22;8552;48.120;-1.456;2023-04-01T08:25:06;10.90;99.90
16871;DHT22;8552;48.120;-1.456;2023-04-01T08:30:53;11.00;99.90
16871;DHT22;8552;48.120;-1.456;2023-04-01T08:33:30;11.10;99.90
16871;DHT22;8552;48.120;-1.456;2023-04-01T08:36:08;11.20;99.90
16871;DHT22;8552;48.120;-1.456;2023-04-01T08:41:25;11.20;99.90
16871;DHT22;8552;48.120;-1.456;2023-04-01T08:55:15;11.80;99.90
16871;DHT22;8552;48.120;-1.456;2023-04-01T08:58:06;11.90;99.90
16871;DHT22;8552;48.120;-1.456;2023-04-01T09:00:43;11.90;99.90
16871;DHT22;8552;48.120;-1.456;2023-04-01T09:22:37;12.20;99.90
16871;DHT22;8552;48.120;-1.456;2023-04-01T09:25:24;12.10;99.90
16871;DHT22;8552;48.120;-1.456;2023-04-01T09:31:27;12.70;99.90
16871;DHT22;8552;48.120;-1.456;2023-04-01T09:40:14;12.70;99.90
16871;DHT22;8552;48.120;-1.456;2023-04-01T09:43:16;12.40;99.90
16871;DHT22;8552;48.120;-1.456;2023-04-01T09:51:37;12.40;99.90
16871;DHT22;8552;48.120;-1.456;2023-04-01T09:54:13;12.30;99.90
16871;DHT22;8552;48.120;-1.456;2023-04-01T10:11:12;12.40;99.90
16871;DHT22;8552;48.120;-1.456;2023-04-01T10:27:25;11.80;99.90
16871;DHT22;8552;48.120;-1.456;2023-04-01T10:44:14;12.70;99.90
16871;DHT22;8552;48.120;-1.456;2023-04-01T11:09:11;13.80;99.90
16871;DHT22;8552;48.120;-1.456;2023-04-01T11:20:28;14.60;99.90
16871;DHT22;8552;48.120;-1.456;2023-04-01T11:23:21;14.90;99.90
16871;DHT22;8552;48.120;-1.456;2023-04-01T11:25:53;15.00;99.90
16871;DHT22;8552;48.120;-1.456;2023-04-01T11:28:24;15.40;99.90
16871;DHT22;8552;48.120;-1.456;2023-04-01T11:33:55;15.20;99.90
16871;DHT22;8552;48.120;-1.456;2023-04-01T11:39:40;13.90;99.90
16871;DHT22;8552;48.120;-1.456;2023-04-01T11:53:41;14.00;99.90
16871;DHT22;8552;48.120;-1.456;2023-04-01T11:56:37;13.90;99.90
16871;DHT22;8552;48.120;-1.456;2023-04-01T12:07:57;13.20;99.90
16871;DHT22;8552;48.120;-1.456;2023-04-01T12:19:04;13.40;99.90
16871;DHT22;8552;48.120;-1.456;2023-04-01T12:21:38;13.60;99.90
16871;DHT22;8552;48.120;-1.456;2023-04-01T12:38:37;14.50;99.90
16871;DHT22;8552;48.120;-1.456;2023-04-01T12:55:04;14.90;99.90
16871;DHT22;8552;48.120;-1.456;2023-04-01T13:16:48;14.70;99.90
16871;DHT22;8552;48.120;-1.456;2023-04-01T13:22:14;13.90;99.90
16871;DHT22;8552;48.120;-1.456;2023-04-01T13:33:03;12.60;99.90
16871;DHT22;8552;48.120;-1.456;2023-04-01T13:38:32;12.70;99.90
16871;DHT22;8552;48.120;-1.456;2023-04-01T13:41:13;12.90;99.90
16871;DHT22;8552;48.120;-1.456;2023-04-01T13:44:14;13.40;99.90
16871;DHT22;8552;48.120;-1.456;2023-04-01T13:52:40;13.90;99.90
16871;DHT22;8552;48.120;-1.456;2023-04-01T14:03:27;14.70;99.90
16871;DHT22;8552;48.120;-1.456;2023-04-01T14:09:20;14.80;99.90
16871;DHT22;8552;48.120;-1.456;2023-04-01T14:12:09;14.70;99.90
16871;DHT22;8552;48.120;-1.456;2023-04-01T14:34:26;14.60;99.90
16871;DHT22;8552;48.120;-1.456;2023-04-01T14:51:09;15.70;99.90
16871;DHT22;8552;48.120;-1.456;2023-04-01T14:53:43;15.30;99.90
16871;DHT22;8552;48.120;-1.456;2023-04-01T14:56:11;15.10;99.90
16871;DHT22;8552;48.120;-1.456;2023-04-01T14:58:46;14.80;99.90
16871;DHT22;8552;48.120;-1.456;2023-04-01T15:03:54;14.90;99.90
16871;DHT22;8552;48.120;-1.456;2023-04-01T15:12:46;16.00;99.90
16871;DHT22;8552;48.120;-1.456;2023-04-01T15:18:40;16.40;99.90
16871;DHT22;8552;48.120;-1.456;2023-04-01T15:34:07;17.50;99.90
16871;DHT22;8552;48.120;-1.456;2023-04-01T15:38:48;17.40;99.90
16871;DHT22;8552;48.120;-1.456;2023-04-01T15:41:19;17.30;99.90
16871;DHT22;8552;48.120;-1.456;2023-04-01T15:43:50;16.80;99.90
16871;DHT22;8552;48.120;-1.456;2023-04-01T15:46:47;16.60;99.90
16871;DHT22;8552;48.120;-1.456;2023-04-01T15:49:31;16.60;99.90
16871;DHT22;8552;48.120;-1.456;2023-04-01T15:52:23;16.80;99.90
16871;DHT22;8552;48.120;-1.456;2023-04-01T15:57:44;16.70;99.90
16871;DHT22;8552;48.120;-1.456;2023-04-01T16:03:23;16.80;99.90
16871;DHT22;8552;48.120;-1.456;2023-04-01T16:22:05;15.00;99.90
16871;DHT22;8552;48.120;-1.456;2023-04-01T16:24:38;14.90;99.90
16871;DHT22;8552;48.120;-1.456;2023-04-01T16:27:29;14.80;99.90
16871;DHT22;8552;48.120;-1.456;2023-04-01T16:38:40;14.40;99.90
16871;DHT22;8552;48.120;-1.456;2023-04-01T16:43:47;14.10;99.90
16871;DHT22;8552;48.120;-1.456;2023-04-01T16:46:20;14.00;99.90
16871;DHT22;8552;48.120;-1.456;2023-04-01T16:57:23;13.90;99.90
16871;DHT22;8552;48.120;-1.456;2023-04-01T17:03:18;13.60;99.90
16871;DHT22;8552;48.120;-1.456;2023-04-01T17:11:06;13.30;99.90
16871;DHT22;8552;48.120;-1.456;2023-04-01T17:16:43;13.30;99.90
16871;DHT22;8552;48.120;-1.456;2023-04-01T17:19:35;13.20;99.90
16871;DHT22;8552;48.120;-1.456;2023-04-01T17:22:33;13.30;99.90
16871;DHT22;8552;48.120;-1.456;2023-04-01T17:33:53;13.00;99.90
16871;DHT22;8552;48.120;-1.456;2023-04-01T17:39:40;12.80;99.90
16871;DHT22;8552;48.120;-1.456;2023-04-01T17:42:18;12.70;99.90
16871;DHT22;8552;48.120;-1.456;2023-04-01T17:44:59;12.80;99.90
16871;DHT22;8552;48.120;-1.456;2023-04-01T17:47:47;12.80;99.90
16871;DHT22;8552;48.120;-1.456;2023-04-01T17:50:20;12.70;99.90
16871;DHT22;8552;48.120;-1.456;2023-04-01T17:53:05;12.50;99.90
16871;DHT22;8552;48.120;-1.456;2023-04-01T17:55:48;12.40;99.90
16871;DHT22;8552;48.120;-1.456;2023-04-01T18:03:45;12.20;99.90
16871;DHT22;8552;48.120;-1.456;2023-04-01T18:06:21;12.10;99.90
16871;DHT22;8552;48.120;-1.456;2023-04-01T18:09:02;12.00;99.90
16871;DHT22;8552;48.120;-1.456;2023-04-01T18:14:36;11.80;99.90
16871;DHT22;8552;48.120;-1.456;2023-04-01T18:22:47;11.80;99.90
16871;DHT22;8552;48.120;-1.456;2023-04-01T18:25:19;11.70;99.90
16871;DHT22;8552;48.120;-1.456;2023-04-01T18:28:11;11.70;99.90
16871;DHT22;8552;48.120;-1.456;2023-04-01T18:30:42;11.60;99.90
16871;DHT22;8552;48.120;-1.456;2023-04-01T18:33:20;11.60;99.90
16871;DHT22;8552;48.120;-1.456;2023-04-01T18:35:54;11.50;99.90
16871;DHT22;8552;48.120;-1.456;2023-04-01T18:38:33;11.50;99.90
16871;DHT22;8552;48.120;-1.456;2023-04-01T18:41:27;11.40;99.90
16871;DHT22;8552;48.120;-1.456;2023-04-01T18:50:50;11.30;99.90
16871;DHT22;8552;48.120;-1.456;2023-04-01T18:52:44;11.30;99.90
16871;DHT22;8552;48.120;-1.456;2023-04-01T18:55:28;11.30;99.90
16871;DHT22;8552;48.120;-1.456;2023-04-01T18:58:21;11.20;99.90
16871;DHT22;8552;48.120;-1.456;2023-04-01T19:00:59;11.20;99.90
16871;DHT22;8552;48.120;-1.456;2023-04-01T19:06:28;11.10;99.90
16871;DHT22;8552;48.120;-1.456;2023-04-01T19:09:22;11.10;99.90
16871;DHT22;8552;48.120;-1.456;2023-04-01T19:11:56;11.10;99.90
16871;DHT22;8552;48.120;-1.456;2023-04-01T19:14:50;11.10;99.90
16871;DHT22;8552;48.120;-1.456;2023-04-01T19:17:30;11.10;99.90
16871;DHT22;8552;48.120;-1.456;2023-04-01T19:20:12;11.00;99.90
16871;DHT22;8552;48.120;-1.456;2023-04-01T19:36:54;10.90;99.90
16871;DHT22;8552;48.120;-1.456;2023-04-01T19:50:26;10.80;99.90
16871;DHT22;8552;48.120;-1.456;2023-04-01T19:52:56;10.80;99.90
16871;DHT22;8552;48.120;-1.456;2023-04-01T19:55:44;10.70;99.90
16871;DHT22;8552;48.120;-1.456;2023-04-01T19:59:31;10.80;99.90
16871;DHT22;8552;48.120;-1.456;2023-04-01T20:01:58;10.70;99.90
16871;DHT22;8552;48.120;-1.456;2023-04-01T20:04:32;10.70;99.90
16871;DHT22;8552;48.120;-1.456;2023-04-01T20:07:10;10.70;99.90
16871;DHT22;8552;48.120;-1.456;2023-04-01T20:09:58;10.70;99.90
16871;DHT22;8552;48.120;-1.456;2023-04-01T20:17:52;10.70;99.90
16871;DHT22;8552;48.120;-1.456;2023-04-01T20:20:22;10.70;99.90
16871;DHT22;8552;48.120;-1.456;2023-04-01T20:23:05;10.70;99.90
16871;DHT22;8552;48.120;-1.456;2023-04-01T20:25:54;10.70;99.90
16871;DHT22;8552;48.120;-1.456;2023-04-01T20:28:47;10.70;99.90
16871;DHT22;8552;48.120;-1.456;2023-04-01T20:34:04;10.70;99.90
16871;DHT22;8552;48.120;-1.456;2023-04-01T20:50:31;10.70;99.90
16871;DHT22;8552;48.120;-1.456;2023-04-01T20:53:18;10.60;99.90
16871;DHT22;8552;48.120;-1.456;2023-04-01T20:56:37;10.60;99.90
16871;DHT22;8552;48.120;-1.456;2023-04-01T21:04:30;10.50;99.90
16871;DHT22;8552;48.120;-1.456;2023-04-01T21:07:10;10.40;99.90
16871;DHT22;8552;48.120;-1.456;2023-04-01T21:10:41;10.40;99.90
16871;DHT22;8552;48.120;-1.456;2023-04-01T21:16:11;10.40;99.90
16871;DHT22;8552;48.120;-1.456;2023-04-01T21:21:44;10.40;99.90
16871;DHT22;8552;48.120;-1.456;2023-04-01T22:06:27;10.20;99.90
16871;DHT22;8552;48.120;-1.456;2023-04-01T22:09:10;10.20;99.90
16871;DHT22;8552;48.120;-1.456;2023-04-01T22:14:30;10.10;99.90
16871;DHT22;8552;48.120;-1.456;2023-04-01T22:19:55;10.10;99.90
16871;DHT22;8552;48.120;-1.456;2023-04-01T22:25:18;10.10;99.90
16871;DHT22;8552;48.120;-1.456;2023-04-01T22:27:59;10.10;99.90
16871;DHT22;8552;48.120;-1.456;2023-04-01T22:30:53;10.10;99.90
16871;DHT22;8552;48.120;-1.456;2023-04-01T22:36:12;10.00;99.90
16871;DHT22;8552;48.120;-1.456;2023-04-01T22:41:35;10.00;99.90
16871;DHT22;8552;48.120;-1.456;2023-04-01T22:44:03;10.00;99.90
16871;DHT22;8552;48.120;-1.456;2023-04-01T22:49:34;10.00;99.90
16871;DHT22;8552;48.120;-1.456;2023-04-01T22:52:22;9.90;99.90
16871;DHT22;8552;48.120;-1.456;2023-04-01T22:54:54;9.90;99.90
16871;DHT22;8552;48.120;-1.456;2023-04-01T22:57:38;9.80;99.90
16871;DHT22;8552;48.120;-1.456;2023-04-01T23:00:13;9.80;99.90
16871;DHT22;8552;48.120;-1.456;2023-04-01T23:02:43;9.70;99.90
16871;DHT22;8552;48.120;-1.456;2023-04-01T23:05:15;9.70;99.90
16871;DHT22;8552;48.120;-1.456;2023-04-01T23:08:00;9.70;99.90
16871;DHT22;8552;48.120;-1.456;2023-04-01T23:10:45;9.60;99.90
16871;DHT22;8552;48.120;-1.456;2023-04-01T23:13:16;9.50;99.90
16871;DHT22;8552;48.120;-1.456;2023-04-01T23:15:44;9.50;99.90
16871;DHT22;8552;48.120;-1.456;2023-04-01T23:18:43;9.40;99.90
16871;DHT22;8552;48.120;-1.456;2023-04-01T23:24:30;9.30;99.90
16871;DHT22;8552;48.120;-1.456;2023-04-01T23:27:08;9.30;99.90
16871;DHT22;8552;48.120;-1.456;2023-04-01T23:29:37;9.20;99.90
16871;DHT22;8552;48.120;-1.456;2023-04-01T23:32:05;9.20;99.90
16871;DHT22;8552;48.120;-1.456;2023-04-01T23:34:38;9.20;99.90
16871;DHT22;8552;48.120;-1.456;2023-04-01T23:37:11;9.10;99.90
16871;DHT22;8552;48.120;-1.456;2023-04-01T23:39:57;9.10;99.90
16871;DHT22;8552;48.120;-1.456;2023-04-01T23:42:29;9.10;99.90
16871;DHT22;8552;48.120;-1.456;2023-04-01T23:44:59;9.00;99.90
16871;DHT22;8552;48.120;-1.456;2023-04-01T23:47:34;9.00;99.90
16871;DHT22;8552;48.120;-1.456;2023-04-01T23:50:14;9.00;99.90
16871;DHT22;8552;48.120;-1.456;2023-04-01T23:52:52;9.00;99.90
16871;DHT22;8552;48.120;-1.456;2023-04-01T23:55:22;9.00;99.90
